Time;durP1;ratioP1;P1;durP2;ratioP2;P2;SDS_P1;SDS_P2;PMS_P1;PMS_P2;Temp;Humidity;BMP_temperature;BMP_pressure;BME280_temperature;BME280_humidity;BME280_pressure;Samples;Min_cycle;Max_cycle;Signal;HPM_P1;HPM_P2
2022/05/12 00:02:07;;;;;;;10.47;6.10;;;20.40;67.00;;;;;;5065020;28;20538;-70
2022/05/12 00:04:36;;;;;;;9.17;6.53;;;20.40;66.80;;;;;;5061907;28;20285;-70
2022/05/12 00:07:04;;;;;;;9.50;7.07;;;20.40;66.80;;;;;;5086087;28;20332;-70
2022/05/12 00:09:32;;;;;;;8.90;6.33;;;20.40;66.90;;;;;;5092828;28;20215;-70
2022/05/12 00:11:59;;;;;;;9.40;6.90;;;20.40;67.00;;;;;;5091509;28;20596;-70
2022/05/12 00:14:26;;;;;;;9.00;6.93;;;20.40;67.20;;;;;;5068763;28;20232;-70
2022/05/12 00:16:56;;;;;;;10.37;6.70;;;20.30;67.40;;;;;;5071086;28;20205;-70
2022/05/12 00:19:29;;;;;;;9.03;7.07;;;20.30;67.20;;;;;;5061397;28;20206;-70
2022/05/12 00:21:56;;;;;;;6.93;6.07;;;20.20;67.70;;;;;;5063441;28;20208;-70
2022/05/12 00:24:24;;;;;;;15.27;6.80;;;20.20;68.00;;;;;;5081531;28;20266;-70
2022/05/12 00:26:51;;;;;;;7.03;6.17;;;20.10;68.20;;;;;;5093365;28;20232;-70
2022/05/12 00:29:19;;;;;;;8.23;5.93;;;20.10;68.30;;;;;;5082540;28;20240;-70
2022/05/12 00:31:47;;;;;;;12.87;6.30;;;20.00;68.60;;;;;;5074507;28;20220;-70
2022/05/12 00:34:16;;;;;;;9.30;5.73;;;20.00;68.70;;;;;;5056460;28;20667;-70
2022/05/12 00:36:44;;;;;;;11.27;6.23;;;19.90;68.80;;;;;;5096474;28;20200;-70
2022/05/12 00:39:11;;;;;;;9.00;6.67;;;19.90;69.50;;;;;;5086688;28;20649;-70
2022/05/12 00:41:38;;;;;;;14.00;7.60;;;19.80;70.10;;;;;;5073330;28;20212;-70
2022/05/12 00:44:09;;;;;;;10.83;7.73;;;19.80;70.30;;;;;;5100288;28;20500;-70
2022/05/12 00:46:40;;;;;;;11.27;7.73;;;19.70;70.50;;;;;;5076429;28;20239;-70
2022/05/12 00:49:18;;;;;;;9.23;7.73;;;19.70;70.50;;;;;;5064520;28;20228;-70
2022/05/12 00:52:17;;;;;;;8.57;7.40;;;19.60;71.00;;;;;;5092688;28;20281;-70
2022/05/12 00:54:49;;;;;;;10.80;7.83;;;19.60;71.60;;;;;;5083937;28;20540;-70
2022/05/12 00:57:26;;;;;;;10.67;7.60;;;19.50;71.60;;;;;;5059813;28;20242;-70
2022/05/12 00:59:54;;;;;;;19.97;8.87;;;19.50;71.60;;;;;;5086751;28;20211;-70
2022/05/12 01:02:21;;;;;;;10.27;7.63;;;19.40;71.70;;;;;;5087957;28;20197;-70
2022/05/12 01:04:49;;;;;;;9.50;7.40;;;19.30;71.80;;;;;;5086209;28;20204;-70
2022/05/12 01:07:16;;;;;;;9.43;7.27;;;19.30;72.10;;;;;;5092243;28;20261;-70
2022/05/12 01:09:44;;;;;;;9.80;7.83;;;19.30;72.20;;;;;;5100886;28;20289;-70
2022/05/12 01:12:11;;;;;;;14.33;8.07;;;19.30;72.10;;;;;;5074314;28;20296;-70
2022/05/12 01:14:38;;;;;;;13.40;7.57;;;19.30;72.20;;;;;;5083384;28;20646;-69
2022/05/12 01:17:06;;;;;;;9.13;7.63;;;19.20;72.20;;;;;;5075856;28;20219;-69
2022/05/12 01:19:38;;;;;;;11.67;7.77;;;19.20;72.40;;;;;;5085127;28;20238;-69
2022/05/12 01:22:09;;;;;;;9.40;8.33;;;19.20;72.30;;;;;;5072631;28;20288;-69
2022/05/12 01:24:39;;;;;;;9.20;7.80;;;19.10;72.30;;;;;;5074019;28;20209;-69
2022/05/12 01:27:20;;;;;;;19.43;8.63;;;19.10;72.40;;;;;;5107125;28;20598;-69
2022/05/12 01:29:57;;;;;;;8.53;7.73;;;19.10;73.30;;;;;;5082469;28;20200;-69
2022/05/12 01:32:28;;;;;;;10.70;8.00;;;19.00;73.90;;;;;;5086369;28;20264;-69
2022/05/12 01:34:56;;;;;;;10.23;7.50;;;19.00;74.30;;;;;;5072479;28;20584;-69
2022/05/12 01:37:24;;;;;;;14.10;8.23;;;18.90;74.20;;;;;;5079705;28;20291;-69
2022/05/12 01:39:51;;;;;;;13.70;8.27;;;18.90;74.00;;;;;;5067091;28;20549;-69
2022/05/12 01:42:19;;;;;;;11.07;8.10;;;18.90;73.60;;;;;;5075130;28;20320;-69
2022/05/12 01:44:47;;;;;;;14.93;7.77;;;18.80;73.50;;;;;;5074656;28;20211;-70
2022/05/12 01:47:14;;;;;;;10.33;8.03;;;18.70;73.80;;;;;;5076783;28;20229;-70
2022/05/12 01:49:42;;;;;;;8.73;7.03;;;18.60;74.10;;;;;;5084113;28;20526;-69
2022/05/12 01:52:12;;;;;;;9.37;8.23;;;18.60;74.70;;;;;;5090203;28;20277;-69
2022/05/12 01:54:39;;;;;;;11.87;8.13;;;18.50;74.90;;;;;;5079980;28;20204;-69
2022/05/12 01:57:07;;;;;;;10.40;7.37;;;18.50;75.20;;;;;;5089778;28;20216;-69
2022/05/12 01:59:34;;;;;;;9.30;7.30;;;18.50;75.60;;;;;;5088563;28;20212;-69
2022/05/12 02:02:03;;;;;;;10.57;8.40;;;18.40;75.90;;;;;;5083233;28;20275;-69
2022/05/12 02:04:30;;;;;;;10.97;8.63;;;18.40;76.30;;;;;;5101622;28;20211;-69
2022/05/12 02:06:57;;;;;;;11.97;8.23;;;18.30;76.60;;;;;;5075540;28;20309;-69
2022/05/12 02:09:24;;;;;;;8.87;7.70;;;18.30;76.80;;;;;;5083437;28;20660;-69
2022/05/12 02:11:51;;;;;;;9.73;8.73;;;18.30;77.30;;;;;;5072470;28;20199;-69
2022/05/12 02:14:19;;;;;;;12.93;8.77;;;18.20;77.30;;;;;;5072340;28;20552;-69
2022/05/12 02:16:46;;;;;;;8.67;7.80;;;18.10;77.30;;;;;;5077177;28;20211;-69
2022/05/12 02:19:13;;;;;;;14.27;9.03;;;18.10;77.60;;;;;;5087434;28;20298;-69
2022/05/12 02:21:40;;;;;;;14.00;9.07;;;18.10;78.10;;;;;;5080996;28;20294;-69
2022/05/12 02:24:07;;;;;;;13.00;9.83;;;18.10;78.30;;;;;;5080572;28;20590;-69
2022/05/12 02:26:34;;;;;;;12.70;9.23;;;18.00;78.10;;;;;;5084215;28;20200;-69
2022/05/12 02:29:02;;;;;;;12.13;8.27;;;18.00;78.00;;;;;;5083223;28;20580;-69
2022/05/12 02:31:29;;;;;;;12.27;8.07;;;18.00;78.00;;;;;;5097517;28;20650;-69
2022/05/12 02:33:57;;;;;;;12.60;8.70;;;18.00;78.20;;;;;;5073785;28;20263;-69
2022/05/12 02:36:24;;;;;;;10.93;8.37;;;18.00;78.10;;;;;;5085233;28;20213;-69
2022/05/12 02:38:51;;;;;;;9.40;8.03;;;18.00;78.00;;;;;;5089965;28;20528;-69
2022/05/12 02:41:18;;;;;;;17.73;8.87;;;18.00;77.90;;;;;;5080320;28;20201;-69
2022/05/12 02:43:45;;;;;;;12.10;8.60;;;18.00;77.70;;;;;;5082184;28;20199;-69
2022/05/12 02:46:14;;;;;;;11.20;7.97;;;18.00;77.70;;;;;;5100617;28;20198;-69
2022/05/12 02:48:46;;;;;;;11.87;8.10;;;18.00;78.60;;;;;;5091009;28;20557;-69
2022/05/12 02:51:13;;;;;;;16.90;8.90;;;18.00;79.10;;;;;;5081501;28;20225;-69
2022/05/12 02:53:41;;;;;;;15.03;9.30;;;17.90;78.90;;;;;;5055548;28;20203;-69
2022/05/12 02:56:09;;;;;;;14.97;9.27;;;17.90;78.80;;;;;;5082209;28;20208;-70
2022/05/12 02:58:38;;;;;;;11.50;8.90;;;17.90;78.60;;;;;;5089522;28;20277;-70
2022/05/12 03:01:08;;;;;;;13.53;9.77;;;17.90;78.20;;;;;;5062807;28;20211;-69
2022/05/12 03:03:36;;;;;;;9.67;8.43;;;17.90;78.00;;;;;;5058401;28;20229;-69
2022/05/12 03:06:03;;;;;;;8.50;7.63;;;17.90;77.60;;;;;;5072020;28;20217;-69
2022/05/12 03:08:30;;;;;;;12.53;8.47;;;17.90;77.40;;;;;;5072444;28;20229;-69
2022/05/12 03:10:57;;;;;;;10.33;8.23;;;17.90;77.30;;;;;;5075942;28;20644;-69
2022/05/12 03:13:24;;;;;;;9.53;7.83;;;17.90;77.20;;;;;;5103188;28;20229;-69
2022/05/12 03:15:52;;;;;;;12.37;8.23;;;17.90;77.20;;;;;;5079766;28;20206;-69
2022/05/12 03:18:19;;;;;;;8.83;7.27;;;17.90;77.20;;;;;;5072698;28;20222;-69
2022/05/12 03:20:47;;;;;;;9.63;7.30;;;17.90;76.90;;;;;;5088138;28;20285;-69
2022/05/12 03:23:22;;;;;;;9.80;7.70;;;17.90;76.40;;;;;;5078830;28;20284;-69
2022/05/12 03:25:51;;;;;;;10.20;6.53;;;17.90;76.00;;;;;;5064891;28;20217;-69
2022/05/12 03:28:18;;;;;;;9.30;6.80;;;17.90;75.40;;;;;;5061891;28;20254;-69
2022/05/12 03:30:46;;;;;;;9.20;6.33;;;17.90;75.10;;;;;;5083368;28;20203;-69
2022/05/12 03:33:14;;;;;;;7.97;5.70;;;17.90;75.10;;;;;;5078238;28;20200;-70
2022/05/12 03:35:41;;;;;;;7.07;6.37;;;17.90;75.20;;;;;;5087341;28;20490;-69
2022/05/12 03:38:08;;;;;;;6.80;5.73;;;17.90;75.20;;;;;;5080370;28;20199;-69
2022/05/12 03:40:35;;;;;;;7.13;6.30;;;17.90;75.30;;;;;;5096822;28;20233;-69
2022/05/12 03:43:02;;;;;;;13.17;5.93;;;17.90;75.30;;;;;;5089887;28;20819;-69
2022/05/12 03:45:30;;;;;;;9.23;6.67;;;17.80;75.40;;;;;;5060376;28;20221;-69
2022/05/12 03:47:57;;;;;;;8.17;6.20;;;17.80;75.40;;;;;;5081745;28;20227;-69
2022/05/12 03:50:26;;;;;;;8.20;6.57;;;17.80;75.40;;;;;;5094913;28;20657;-69
2022/05/12 03:52:55;;;;;;;11.00;6.93;;;17.80;75.40;;;;;;5086920;28;20254;-69
2022/05/12 03:55:26;;;;;;;8.33;6.40;;;17.80;75.40;;;;;;5099814;28;20290;-69
2022/05/12 03:57:55;;;;;;;7.97;6.43;;;17.80;75.40;;;;;;5064844;28;20301;-69
2022/05/12 04:00:27;;;;;;;11.27;6.80;;;17.80;75.20;;;;;;5090764;28;20292;-69
2022/05/12 04:02:55;;;;;;;8.57;6.90;;;17.70;75.20;;;;;;5064553;28;20243;-69
2022/05/12 04:05:22;;;;;;;7.73;6.93;;;17.80;75.10;;;;;;5081795;28;20247;-69
2022/05/12 04:07:51;;;;;;;10.47;7.10;;;17.80;75.00;;;;;;5065817;28;20655;-69
2022/05/12 04:10:22;;;;;;;10.77;7.53;;;17.70;74.90;;;;;;5060220;28;20310;-69
2022/05/12 04:12:49;;;;;;;8.87;7.77;;;17.80;74.90;;;;;;5069949;28;20206;-69
2022/05/12 04:15:17;;;;;;;10.00;7.60;;;17.80;75.00;;;;;;5093086;28;20206;-69
2022/05/12 04:17:47;;;;;;;20.93;8.07;;;17.80;75.10;;;;;;5084499;28;20538;-69
2022/05/12 04:20:15;;;;;;;11.67;7.33;;;17.90;75.20;;;;;;5099687;28;20227;-69
2022/05/12 04:22:45;;;;;;;10.33;7.17;;;17.90;75.20;;;;;;5076847;28;20285;-69
2022/05/12 04:25:12;;;;;;;8.33;7.47;;;17.90;75.20;;;;;;5076926;28;20220;-69
2022/05/12 04:27:41;;;;;;;11.60;7.33;;;17.90;75.20;;;;;;5084163;28;20220;-70
2022/05/12 04:30:11;;;;;;;11.47;7.50;;;17.90;75.00;;;;;;5073592;28;20211;-69
2022/05/12 04:32:39;;;;;;;14.33;8.10;;;17.90;75.00;;;;;;5083942;28;20207;-69
2022/05/12 04:35:12;;;;;;;7.87;7.07;;;17.90;75.50;;;;;;5078211;28;20205;-69
2022/05/12 04:37:47;;;;;;;10.33;7.73;;;18.00;75.90;;;;;;5067421;28;20208;-69
2022/05/12 04:40:27;;;;;;;9.70;8.23;;;18.00;76.10;;;;;;5079683;28;20634;-69
2022/05/12 04:42:56;;;;;;;8.30;7.50;;;18.00;76.10;;;;;;5083804;28;20216;-69
2022/05/12 04:45:26;;;;;;;10.63;8.80;;;18.00;76.00;;;;;;5058873;28;20207;-69
2022/05/12 04:47:54;;;;;;;10.43;7.67;;;18.10;76.00;;;;;;5084658;28;20631;-69
2022/05/12 04:50:25;;;;;;;10.07;8.03;;;18.10;76.10;;;;;;5067284;28;20229;-69
2022/05/12 04:52:52;;;;;;;11.93;8.30;;;18.20;76.30;;;;;;5082262;28;20234;-69
2022/05/12 04:55:20;;;;;;;10.93;8.47;;;18.20;76.10;;;;;;5069130;28;20199;-69
2022/05/12 04:57:50;;;;;;;9.70;7.43;;;18.30;75.40;;;;;;5063249;28;20212;-69
2022/05/12 05:00:20;;;;;;;11.53;6.63;;;18.40;75.20;;;;;;5058030;28;20265;-69
2022/05/12 05:02:48;;;;;;;11.73;6.90;;;18.50;74.80;;;;;;5081923;28;20233;-69
2022/05/12 05:05:16;;;;;;;7.80;6.43;;;18.60;74.10;;;;;;5078921;28;20209;-69
2022/05/12 05:07:43;;;;;;;9.70;6.10;;;18.70;73.80;;;;;;5080778;28;20239;-69
2022/05/12 05:10:12;;;;;;;7.93;5.70;;;18.90;73.60;;;;;;5038442;28;20212;-69
2022/05/12 05:12:43;;;;;;;7.60;5.90;;;19.00;73.20;;;;;;5073132;28;20222;-69
2022/05/12 05:15:12;;;;;;;9.37;5.40;;;19.10;72.80;;;;;;5077588;28;20224;-69
2022/05/12 05:17:41;;;;;;;9.80;5.30;;;19.20;72.30;;;;;;5068599;28;20531;-69
2022/05/12 05:20:19;;;;;;;5.63;5.13;;;19.20;71.90;;;;;;5058233;28;20208;-69
2022/05/12 05:22:47;;;;;;;4.97;4.50;;;19.40;71.70;;;;;;5018982;28;1236790;-69
2022/05/12 05:25:16;;;;;;;7.20;4.30;;;19.60;71.10;;;;;;5090378;28;20206;-69
2022/05/12 05:27:45;;;;;;;8.33;4.80;;;19.90;70.10;;;;;;5070670;28;20213;-69
2022/05/12 05:30:17;;;;;;;6.63;4.40;;;20.20;69.10;;;;;;5081185;28;20614;-69
2022/05/12 05:32:45;;;;;;;6.47;4.63;;;20.40;68.40;;;;;;5081159;28;20204;-69
2022/05/12 05:35:12;;;;;;;6.77;4.43;;;20.70;67.60;;;;;;5092716;28;20639;-69
2022/05/12 05:37:42;;;;;;;5.43;4.00;;;20.90;67.00;;;;;;5095077;28;20230;-69
2022/05/12 05:40:13;;;;;;;5.57;4.10;;;21.10;66.50;;;;;;5070545;28;20208;-69
2022/05/12 05:42:46;;;;;;;12.60;4.93;;;21.20;66.40;;;;;;5078024;28;20204;-70
2022/05/12 05:45:16;;;;;;;9.30;4.43;;;21.30;66.30;;;;;;5093678;28;20291;-70
2022/05/12 05:47:56;;;;;;;6.83;4.20;;;21.40;66.30;;;;;;5080924;28;20544;-70
2022/05/12 05:50:26;;;;;;;6.27;4.13;;;21.60;65.60;;;;;;5078444;28;20254;-69
2022/05/12 05:55:41;;;;;;;7.33;4.40;;;21.90;64.20;;;;;;5060333;28;20210;-69
2022/05/12 05:58:10;;;;;;;6.67;4.30;;;22.10;63.20;;;;;;5089750;28;20201;-69
2022/05/12 06:00:37;;;;;;;6.53;4.37;;;22.20;62.80;;;;;;5071673;28;20311;-69
2022/05/12 06:03:05;;;;;;;5.50;4.43;;;22.30;62.90;;;;;;5075047;28;20367;-69
2022/05/12 06:05:33;;;;;;;4.87;4.23;;;22.40;62.80;;;;;;5069829;28;20206;-70
2022/05/12 06:08:01;;;;;;;5.40;4.70;;;22.50;62.50;;;;;;5096382;28;20217;-70
2022/05/12 06:10:28;;;;;;;7.20;4.60;;;22.60;62.30;;;;;;5103942;28;20282;-70
2022/05/12 06:12:56;;;;;;;7.20;4.23;;;22.70;62.10;;;;;;5088713;28;20193;-70
2022/05/12 06:15:25;;;;;;;5.97;4.20;;;22.80;62.40;;;;;;5061541;28;20209;-70
2022/05/12 06:17:52;;;;;;;6.70;4.67;;;22.90;62.40;;;;;;5077142;28;20226;-70
2022/05/12 06:20:21;;;;;;;6.17;4.47;;;23.00;62.70;;;;;;5080048;28;20624;-70
2022/05/12 06:22:48;;;;;;;8.00;4.80;;;23.10;62.80;;;;;;5062741;28;20241;-70
2022/05/12 06:25:17;;;;;;;5.90;4.57;;;23.20;62.50;;;;;;5071008;28;20291;-70
2022/05/12 06:27:45;;;;;;;7.70;5.47;;;23.40;61.50;;;;;;5062452;28;20213;-70
2022/05/12 06:30:14;;;;;;;9.10;5.17;;;23.50;60.80;;;;;;5095266;28;20204;-70
2022/05/12 06:32:43;;;;;;;6.83;5.00;;;23.60;60.80;;;;;;5059707;28;20209;-70
2022/05/12 06:35:12;;;;;;;8.67;4.83;;;23.70;60.40;;;;;;5095323;28;20194;-70
2022/05/12 06:37:40;;;;;;;7.13;5.20;;;23.90;60.10;;;;;;5076992;28;20204;-70
2022/05/12 06:40:08;;;;;;;10.80;5.53;;;24.00;59.60;;;;;;5074260;28;20262;-70
2022/05/12 06:42:36;;;;;;;7.97;5.80;;;24.10;59.60;;;;;;5087502;28;20288;-70
2022/05/12 06:45:04;;;;;;;5.07;4.53;;;24.20;59.90;;;;;;5074854;28;20192;-70
2022/05/12 06:47:31;;;;;;;6.73;4.43;;;24.30;60.30;;;;;;5076777;28;20293;-70
2022/05/12 06:50:01;;;;;;;9.10;5.60;;;24.40;60.30;;;;;;5098173;28;20643;-70
2022/05/12 06:52:30;;;;;;;8.10;5.90;;;24.60;59.90;;;;;;5090154;28;20201;-70
2022/05/12 06:54:58;;;;;;;6.20;4.90;;;24.70;59.80;;;;;;5087350;28;20206;-70
2022/05/12 06:57:28;;;;;;;6.27;5.37;;;24.80;59.40;;;;;;5070792;28;20198;-70
2022/05/12 06:59:55;;;;;;;7.10;5.37;;;24.90;59.60;;;;;;5067255;28;20212;-70
2022/05/12 07:02:24;;;;;;;8.87;5.67;;;25.00;59.60;;;;;;5075275;28;20216;-70
2022/05/12 07:04:53;;;;;;;6.53;5.50;;;25.10;58.90;;;;;;5082629;28;20206;-70
2022/05/12 07:07:21;;;;;;;5.63;4.77;;;25.20;58.70;;;;;;5089677;28;20567;-70
2022/05/12 07:09:52;;;;;;;11.70;5.50;;;25.40;58.60;;;;;;5083071;28;20222;-70
2022/05/12 07:12:26;;;;;;;7.30;5.27;;;25.50;58.70;;;;;;5071962;28;20224;-70
2022/05/12 07:14:55;;;;;;;9.77;6.07;;;25.50;58.10;;;;;;5096855;28;20198;-70
2022/05/12 07:17:23;;;;;;;6.47;5.47;;;25.70;57.70;;;;;;5089388;28;20289;-70
2022/05/12 07:19:50;;;;;;;8.27;6.40;;;25.70;57.30;;;;;;5066649;28;20246;-70
2022/05/12 07:27:49;;;;;;;9.67;6.43;;;26.00;57.00;;;;;;5062071;28;20281;-70
2022/05/12 07:30:17;;;;;;;7.63;6.70;;;26.10;56.70;;;;;;5073631;28;20207;-70
2022/05/12 07:32:44;;;;;;;7.97;6.73;;;26.20;57.00;;;;;;5060496;28;20304;-70
2022/05/12 07:35:12;;;;;;;13.73;6.43;;;26.30;56.90;;;;;;5087830;28;20701;-70
2022/05/12 07:37:41;;;;;;;9.63;6.20;;;26.40;56.50;;;;;;5072177;28;20211;-70
2022/05/12 07:40:08;;;;;;;7.43;5.93;;;26.50;56.30;;;;;;5085107;28;20242;-70
2022/05/12 07:42:37;;;;;;;8.93;6.27;;;26.60;56.20;;;;;;5080511;28;20266;-70
2022/05/12 07:45:05;;;;;;;8.87;6.67;;;26.70;56.40;;;;;;5102074;28;20202;-70
2022/05/12 07:47:32;;;;;;;8.43;6.13;;;26.80;56.00;;;;;;5078048;28;20201;-70
2022/05/12 07:50:00;;;;;;;10.10;5.87;;;26.90;55.50;;;;;;5082770;28;20224;-70
2022/05/12 07:52:29;;;;;;;7.20;6.23;;;27.00;55.60;;;;;;5092934;28;20627;-70
2022/05/12 07:54:57;;;;;;;7.53;6.10;;;27.10;55.60;;;;;;5061705;28;20275;-70
2022/05/12 07:57:24;;;;;;;10.67;5.30;;;27.20;55.30;;;;;;5070575;28;20279;-70
2022/05/12 07:59:52;;;;;;;7.00;5.37;;;27.30;54.00;;;;;;5077354;28;20287;-70
2022/05/12 08:02:20;;;;;;;5.90;4.60;;;27.40;52.30;;;;;;5051796;28;20215;-70
2022/05/12 08:04:47;;;;;;;11.23;4.33;;;27.40;51.70;;;;;;5099704;28;20210;-70
2022/05/12 08:07:14;;;;;;;10.93;5.03;;;27.40;53.10;;;;;;5091842;28;20227;-70
2022/05/12 08:09:43;;;;;;;5.40;4.90;;;27.50;52.80;;;;;;5081190;28;20256;-70
2022/05/12 08:12:11;;;;;;;10.70;4.70;;;27.50;49.50;;;;;;5071895;28;20199;-70
2022/05/12 08:14:38;;;;;;;9.73;5.50;;;27.40;49.70;;;;;;5092681;28;20304;-70
2022/05/12 08:17:05;;;;;;;5.57;4.83;;;27.40;51.90;;;;;;5097902;28;20225;-70
2022/05/12 08:19:34;;;;;;;8.87;4.70;;;27.40;51.50;;;;;;5079633;28;20201;-70
2022/05/12 08:22:06;;;;;;;6.50;4.40;;;27.50;51.60;;;;;;5067735;28;20212;-71
2022/05/12 08:24:33;;;;;;;7.83;5.10;;;27.60;52.50;;;;;;5092418;28;20204;-71
2022/05/12 08:27:01;;;;;;;10.27;4.70;;;27.70;49.40;;;;;;5083490;28;20206;-71
2022/05/12 08:29:28;;;;;;;5.93;4.03;;;27.60;49.50;;;;;;5107229;28;20249;-71
2022/05/12 08:31:55;;;;;;;8.33;4.60;;;27.60;50.70;;;;;;5069415;28;20341;-70
2022/05/12 08:34:22;;;;;;;5.63;4.47;;;27.60;51.40;;;;;;5096650;28;20295;-70
2022/05/12 08:36:49;;;;;;;6.80;4.63;;;27.70;51.30;;;;;;5085683;28;20330;-70
2022/05/12 08:39:17;;;;;;;6.97;5.03;;;27.80;48.60;;;;;;5092562;28;20639;-70
2022/05/12 08:41:58;;;;;;;9.33;4.90;;;27.70;48.40;;;;;;5086303;28;20208;-70
2022/05/12 08:44:26;;;;;;;9.23;4.63;;;27.60;49.50;;;;;;5074355;28;20660;-70
2022/05/12 08:46:55;;;;;;;10.53;5.50;;;27.60;50.80;;;;;;5065476;28;20604;-70
2022/05/12 08:49:36;;;;;;;9.97;4.80;;;27.70;49.20;;;;;;5103102;28;20555;-70
2022/05/12 08:52:16;;;;;;;7.83;4.30;;;27.70;49.50;;;;;;5082096;28;20209;-70
2022/05/12 08:54:51;;;;;;;6.27;3.97;;;27.70;49.40;;;;;;5094858;28;20216;-70
2022/05/12 08:57:26;;;;;;;5.83;3.50;;;27.90;50.10;;;;;;5084179;28;20200;-70
2022/05/12 08:59:54;;;;;;;5.47;3.80;;;28.10;49.30;;;;;;5059585;28;20341;-70
2022/05/12 09:02:35;;;;;;;5.57;3.40;;;28.20;47.70;;;;;;5083389;28;20209;-70
2022/05/12 09:05:07;;;;;;;7.80;3.53;;;28.40;47.30;;;;;;5073523;28;20252;-70
2022/05/12 09:07:39;;;;;;;5.87;3.43;;;28.50;47.60;;;;;;5069876;28;20217;-70
2022/05/12 09:10:39;;;;;;;7.80;4.47;;;28.70;47.30;;;;;;5096730;28;20221;-70
2022/05/12 09:13:40;;;;;;;5.93;3.30;;;28.80;45.70;;;;;;5084490;28;20267;-70
2022/05/12 09:16:32;;;;;;;7.67;3.23;;;28.90;47.30;;;;;;5065123;28;20322;-70
2022/05/12 09:19:00;;;;;;;8.27;3.33;;;29.00;46.40;;;;;;5094693;28;20559;-71
2022/05/12 09:21:35;;;;;;;8.57;3.53;;;29.20;45.90;;;;;;5068274;28;20205;-70
2022/05/12 09:24:04;;;;;;;5.63;3.60;;;29.20;46.00;;;;;;5095211;28;20229;-70
2022/05/12 09:26:41;;;;;;;8.07;3.63;;;29.30;45.20;;;;;;5061863;28;20201;-70
2022/05/12 09:29:14;;;;;;;4.13;3.10;;;29.40;43.90;;;;;;5079968;28;20661;-70
2022/05/12 09:31:45;;;;;;;3.27;2.50;;;29.30;43.60;;;;;;5081358;28;20196;-70
2022/05/12 09:34:32;;;;;;;8.13;3.57;;;29.30;44.70;;;;;;5088976;28;20282;-71
2022/05/12 09:37:17;;;;;;;5.73;3.30;;;29.40;46.20;;;;;;5068269;28;20295;-71
2022/05/12 09:39:50;;;;;;;4.43;3.60;;;29.50;46.90;;;;;;5076621;28;20516;-70
2022/05/12 09:42:38;;;;;;;5.57;2.70;;;29.60;46.60;;;;;;5082351;28;20520;-70
2022/05/12 09:45:23;;;;;;;4.17;2.23;;;29.80;45.60;;;;;;5078481;28;20213;-71
2022/05/12 09:48:06;;;;;;;7.30;3.07;;;29.90;44.40;;;;;;5082479;28;20209;-71
2022/05/12 09:50:39;;;;;;;5.17;3.47;;;30.00;45.20;;;;;;5075746;28;20546;-71
2022/05/12 09:53:09;;;;;;;6.37;3.23;;;30.10;44.80;;;;;;5084214;28;20517;-71
2022/05/12 09:55:39;;;;;;;6.50;2.57;;;30.20;45.10;;;;;;5106768;28;20205;-71
2022/05/12 09:58:15;;;;;;;4.37;2.57;;;30.30;44.80;;;;;;5084547;28;20205;-71
2022/05/12 10:00:43;;;;;;;5.60;2.50;;;30.30;44.30;;;;;;5091593;28;20201;-71
2022/05/12 10:09:05;;;;;;;6.23;3.13;;;30.50;43.50;;;;;;5103721;28;20497;-70
2022/05/12 10:11:50;;;;;;;4.17;3.10;;;30.60;44.60;;;;;;5089980;28;20647;-70
2022/05/12 10:14:29;;;;;;;4.60;3.07;;;30.60;43.90;;;;;;5085654;28;20208;-70
2022/05/12 10:17:01;;;;;;;4.00;3.03;;;30.70;44.10;;;;;;5087497;28;20233;-71
2022/05/12 10:19:30;;;;;;;4.47;2.83;;;30.70;44.60;;;;;;5078925;28;20627;-71
2022/05/12 10:22:18;;;;;;;7.27;3.30;;;30.80;44.30;;;;;;5082194;28;20215;-71
2022/05/12 10:25:11;;;;;;;8.47;2.80;;;30.80;43.80;;;;;;5090513;28;20296;-70
2022/05/12 10:27:47;;;;;;;5.53;2.83;;;30.90;44.00;;;;;;5082910;28;20301;-70
2022/05/12 10:30:21;;;;;;;5.97;2.27;;;31.00;42.40;;;;;;5089098;28;20820;-70
2022/05/12 10:33:03;;;;;;;7.37;2.90;;;30.90;42.60;;;;;;5081668;28;20327;-71
2022/05/12 10:35:59;;;;;;;4.37;2.87;;;30.90;42.70;;;;;;5074302;28;20205;-71
2022/05/12 10:38:37;;;;;;;8.03;3.40;;;30.90;44.00;;;;;;5079507;28;20205;-71
2022/05/12 10:41:35;;;;;;;4.13;3.10;;;30.90;42.40;;;;;;5085624;28;20710;-71
2022/05/12 10:44:36;;;;;;;5.10;3.10;;;30.90;42.60;;;;;;5063398;28;20210;-71
2022/05/12 10:47:32;;;;;;;4.17;2.90;;;31.00;42.00;;;;;;5091774;28;20213;-71
2022/05/12 10:50:18;;;;;;;2.77;2.37;;;30.90;40.40;;;;;;5083705;28;20316;-70
2022/05/12 10:53:06;;;;;;;3.60;2.40;;;30.80;40.20;;;;;;5083497;28;20414;-70
2022/05/12 10:56:09;;;;;;;4.97;2.50;;;30.60;44.60;;;;;;5066207;28;20303;-70
2022/05/12 10:58:50;;;;;;;4.60;2.20;;;30.50;40.30;;;;;;5083813;28;20216;-70
2022/05/12 11:01:56;;;;;;;5.60;2.77;;;30.40;40.00;;;;;;5080436;28;20271;-71
2022/05/12 11:04:32;;;;;;;5.50;2.80;;;30.50;42.60;;;;;;5083876;28;20302;-71
2022/05/12 11:07:04;;;;;;;6.07;3.13;;;30.60;42.70;;;;;;5088425;28;20205;-70
2022/05/12 11:09:37;;;;;;;4.97;2.67;;;30.70;42.20;;;;;;5063454;28;20304;-70
2022/05/12 11:12:33;;;;;;;3.50;2.53;;;30.80;41.80;;;;;;5091852;28;20553;-70
2022/05/12 11:15:34;;;;;;;3.30;2.80;;;30.90;42.40;;;;;;5061089;28;20294;-70
2022/05/12 11:18:05;;;;;;;4.63;3.07;;;31.00;42.70;;;;;;5083479;28;20216;-70
2022/05/12 11:20:44;;;;;;;8.17;2.97;;;31.00;42.70;;;;;;5070737;28;20216;-70
2022/05/12 11:23:33;;;;;;;8.10;3.10;;;31.10;41.30;;;;;;5077725;28;20245;-71
2022/05/12 11:26:25;;;;;;;9.03;2.93;;;31.10;41.40;;;;;;5079238;28;20254;-71
2022/05/12 11:32:26;;;;;;;6.97;3.17;;;31.30;41.90;;;;;;5077572;28;20257;-70
2022/05/12 11:35:28;;;;;;;5.97;2.80;;;31.30;39.70;;;;;;5081599;28;20225;-70
2022/05/12 11:38:02;;;;;;;5.63;2.87;;;31.30;41.60;;;;;;5087794;28;20232;-70
2022/05/12 11:40:43;;;;;;;5.47;2.57;;;31.20;41.80;;;;;;5097474;28;20201;-70
2022/05/12 11:46:30;;;;;;;6.63;2.20;;;31.40;42.20;;;;;;5081114;28;20584;-70
2022/05/12 11:49:04;;;;;;;5.63;2.47;;;31.40;40.70;;;;;;5082541;28;20701;-70
2022/05/12 11:52:00;;;;;;;3.43;2.20;;;31.50;38.60;;;;;;5109651;28;20601;-70
2022/05/12 11:54:47;;;;;;;7.03;2.40;;;31.60;39.50;;;;;;5088287;28;20235;-70
2022/05/12 11:57:22;;;;;;;3.70;2.60;;;31.60;40.40;;;;;;5089466;28;20355;-70
2022/05/12 11:59:55;;;;;;;4.80;2.30;;;31.60;40.00;;;;;;5087130;28;20232;-69
2022/05/12 12:02:28;;;;;;;10.00;2.67;;;31.70;40.10;;;;;;5079766;28;20275;-69
2022/05/12 12:04:59;;;;;;;3.07;2.33;;;31.70;37.90;;;;;;5085117;28;20635;-70
2022/05/12 12:07:32;;;;;;;11.73;2.90;;;31.60;39.10;;;;;;5093003;28;20682;-70
2022/05/12 12:10:09;;;;;;;4.97;2.43;;;31.60;39.70;;;;;;5086401;28;20217;-70
2022/05/12 12:12:45;;;;;;;4.50;2.30;;;31.60;39.50;;;;;;5073970;28;20200;-69
2022/05/12 12:15:37;;;;;;;5.00;2.53;;;31.60;39.50;;;;;;5102313;28;20566;-69
2022/05/12 12:18:22;;;;;;;4.17;2.10;;;31.70;38.20;;;;;;5086338;28;20206;-69
2022/05/12 12:20:54;;;;;;;3.70;2.43;;;31.70;39.50;;;;;;5088800;28;20284;-70
2022/05/12 12:23:36;;;;;;;4.47;2.10;;;31.70;40.20;;;;;;5081202;28;20796;-69
2022/05/12 12:26:27;;;;;;;5.13;2.47;;;31.70;39.20;;;;;;5106646;28;20279;-70
2022/05/12 12:29:12;;;;;;;4.77;2.27;;;31.70;39.20;;;;;;5068334;28;20227;-70
2022/05/12 12:31:43;;;;;;;3.53;2.20;;;31.80;40.50;;;;;;5090206;28;20331;-70
2022/05/12 12:34:21;;;;;;;6.13;2.33;;;31.80;41.20;;;;;;5084505;28;20201;-70
2022/05/12 12:37:01;;;;;;;2.80;2.00;;;31.90;42.10;;;;;;5091285;28;20201;-70
2022/05/12 12:39:46;;;;;;;10.23;2.20;;;31.90;42.00;;;;;;5076220;28;20212;-70
2022/05/12 12:42:43;;;;;;;3.50;2.00;;;32.00;41.40;;;;;;5104865;28;20201;-70
2022/05/12 12:45:16;;;;;;;6.87;2.00;;;31.90;39.50;;;;;;5087996;28;20201;-70
2022/05/12 12:48:07;;;;;;;8.07;2.73;;;31.90;40.10;;;;;;5075114;28;20283;-70
2022/05/12 12:50:41;;;;;;;4.47;2.13;;;31.90;40.60;;;;;;5103131;28;20221;-70
2022/05/12 12:56:32;;;;;;;4.23;2.13;;;31.90;40.30;;;;;;5087433;28;20208;-69
2022/05/12 12:59:22;;;;;;;4.40;2.20;;;31.90;40.40;;;;;;5092176;28;20572;-69
2022/05/12 13:01:54;;;;;;;2.57;2.13;;;31.90;40.90;;;;;;5067135;28;20206;-69
2022/05/12 13:04:29;;;;;;;2.70;2.00;;;31.90;41.70;;;;;;5075514;28;20259;-69
2022/05/12 13:07:01;;;;;;;4.90;2.07;;;31.90;41.30;;;;;;5082156;28;20611;-69
2022/05/12 13:09:34;;;;;;;4.87;2.20;;;31.90;40.50;;;;;;5076085;28;20650;-69
2022/05/12 13:12:07;;;;;;;3.90;1.90;;;31.90;39.90;;;;;;5080016;28;20297;-69
2022/05/12 13:14:37;;;;;;;7.40;2.33;;;31.90;39.80;;;;;;5083739;28;20254;-69
2022/05/12 13:17:17;;;;;;;4.20;1.93;;;31.90;39.60;;;;;;5082298;28;20205;-69
2022/05/12 13:19:45;;;;;;;5.13;2.03;;;31.90;38.70;;;;;;5095510;28;20221;-69
2022/05/12 13:22:26;;;;;;;1.90;1.70;;;31.80;38.90;;;;;;5088791;28;20597;-69
2022/05/12 13:24:54;;;;;;;6.77;2.60;;;31.80;39.40;;;;;;5066638;28;20303;-70
2022/05/12 13:27:28;;;;;;;3.23;1.97;;;31.80;38.70;;;;;;5096857;28;20217;-69
2022/05/12 13:29:56;;;;;;;3.47;2.07;;;31.70;39.10;;;;;;5085969;28;20591;-69
2022/05/12 13:32:42;;;;;;;5.73;1.90;;;31.70;39.60;;;;;;5069071;28;20205;-69
2022/05/12 13:35:16;;;;;;;5.80;2.40;;;31.70;39.70;;;;;;5105626;28;20266;-69